createdAt,value
2019-03-08T00:00:24.405Z,81.50
2019-03-08T00:02:52.767Z,81.10
2019-03-08T00:05:21.306Z,81.10
2019-03-08T00:07:49.965Z,81.30
2019-03-08T00:10:18.647Z,80.40
2019-03-08T00:12:47.271Z,79.80
2019-03-08T00:15:15.603Z,79.40
2019-03-08T00:17:44.215Z,78.70
2019-03-08T00:20:13.043Z,79.20
2019-03-08T00:22:41.690Z,80.90
2019-03-08T00:25:11.268Z,84.00
2019-03-08T00:27:39.895Z,86.60
2019-03-08T00:30:11.214Z,88.30
2019-03-08T00:32:39.839Z,86.80
2019-03-08T00:35:09.040Z,89.30
2019-03-08T00:37:37.375Z,89.70
2019-03-08T00:40:08.474Z,90.00
2019-03-08T00:42:36.815Z,89.20
2019-03-08T00:45:08.819Z,89.70
2019-03-08T00:47:37.350Z,90.10
2019-03-08T00:50:07.336Z,90.90
2019-03-08T00:52:35.937Z,90.60
2019-03-08T00:55:06.034Z,90.30
2019-03-08T00:57:34.376Z,90.20
2019-03-08T01:00:03.009Z,90.70
2019-03-08T01:02:31.687Z,90.20
2019-03-08T01:04:59.975Z,83.70
2019-03-08T01:07:28.664Z,83.70
2019-03-08T01:09:57.027Z,83.30
2019-03-08T01:12:25.363Z,79.60
2019-03-08T01:14:53.723Z,78.20
2019-03-08T01:17:22.263Z,78.10
2019-03-08T01:19:50.619Z,77.40
2019-03-08T01:22:19.266Z,77.10
2019-03-08T01:24:47.963Z,77.20
2019-03-08T01:27:16.307Z,77.80
2019-03-08T01:29:45.031Z,77.00
2019-03-08T01:32:13.727Z,76.50
2019-03-08T01:34:42.086Z,76.50
2019-03-08T01:37:10.687Z,76.70
2019-03-08T01:39:39.396Z,76.30
2019-03-08T01:42:07.727Z,76.00
2019-03-08T01:44:36.463Z,75.00
2019-03-08T01:47:04.806Z,75.20
2019-03-08T01:49:33.167Z,75.70
2019-03-08T01:52:01.512Z,75.00
2019-03-08T01:54:29.870Z,75.70
2019-03-08T01:56:58.212Z,76.10
2019-03-08T01:59:26.872Z,74.70
2019-03-08T02:01:55.211Z,74.80
2019-03-08T02:04:23.573Z,74.60
2019-03-08T02:06:52.171Z,74.70
2019-03-08T02:09:20.803Z,74.70
2019-03-08T02:11:49.062Z,74.40
2019-03-08T02:14:17.427Z,73.80
2019-03-08T02:16:46.055Z,74.50
2019-03-08T02:19:14.415Z,73.60
2019-03-08T02:21:42.755Z,73.60
2019-03-08T02:24:11.411Z,72.10
2019-03-08T02:26:40.099Z,72.40
2019-03-08T02:29:08.439Z,72.60
2019-03-08T02:31:37.056Z,71.70
2019-03-08T02:34:05.396Z,73.00
2019-03-08T02:36:34.044Z,72.50
2019-03-08T02:39:02.384Z,72.90
2019-03-08T02:41:30.742Z,74.30
2019-03-08T02:43:59.085Z,74.20
2019-03-08T02:46:27.551Z,73.20
2019-03-08T02:48:55.891Z,73.00
2019-03-08T02:51:24.555Z,73.40
2019-03-08T02:53:53.242Z,73.20
2019-03-08T02:56:21.936Z,74.00
2019-03-08T02:58:50.626Z,73.90
2019-03-08T03:01:18.983Z,73.60
2019-03-08T03:03:47.319Z,73.40
2019-03-08T03:06:15.881Z,73.80
2019-03-08T03:08:44.223Z,72.60
2019-03-08T03:11:12.951Z,71.70
2019-03-08T03:13:41.287Z,72.10
2019-03-08T03:16:09.927Z,71.70
2019-03-08T03:18:38.264Z,72.00
2019-03-08T03:21:06.630Z,72.20
2019-03-08T03:23:34.975Z,73.10
2019-03-08T03:26:03.663Z,72.80
2019-03-08T03:28:32.005Z,72.80
2019-03-08T03:31:00.363Z,73.30
2019-03-08T03:33:28.699Z,72.90
2019-03-08T03:35:57.395Z,72.10
2019-03-08T03:38:26.092Z,71.50
2019-03-08T03:40:54.775Z,71.40
2019-03-08T03:43:23.110Z,71.90
2019-03-08T03:45:51.751Z,69.90
2019-03-08T03:48:20.443Z,71.10
2019-03-08T03:50:48.803Z,70.70
2019-03-08T03:53:17.415Z,69.50
2019-03-08T03:55:45.778Z,68.60
2019-03-08T03:58:33.552Z,68.70
2019-03-08T04:01:03.559Z,70.00
2019-03-08T04:03:31.905Z,69.60
2019-03-08T04:06:00.271Z,70.30
2019-03-08T04:08:30.019Z,71.40
2019-03-08T04:10:58.716Z,70.30
2019-03-08T04:13:27.051Z,69.00
2019-03-08T04:15:55.786Z,69.60
2019-03-08T04:18:24.479Z,70.70
2019-03-08T04:20:52.861Z,70.70
2019-03-08T04:23:21.443Z,70.00
2019-03-08T04:25:50.139Z,70.10
2019-03-08T04:28:18.479Z,69.60
2019-03-08T04:30:46.838Z,70.10
2019-03-08T04:33:15.189Z,70.30
2019-03-08T04:35:43.879Z,69.70
2019-03-08T04:38:12.563Z,70.50
2019-03-08T04:40:41.026Z,70.70
2019-03-08T04:43:09.643Z,70.60
2019-03-08T04:45:38.264Z,71.30
2019-03-08T04:48:06.919Z,71.80
2019-03-08T04:50:35.615Z,72.20
2019-03-08T04:53:04.304Z,73.30
2019-03-08T04:55:32.867Z,73.80
2019-03-08T04:58:01.478Z,73.30
2019-03-08T05:00:30.163Z,72.70
2019-03-08T05:02:58.507Z,72.60
2019-03-08T05:05:27.139Z,72.70
2019-03-08T05:07:55.831Z,72.70
2019-03-08T05:10:24.371Z,72.60
2019-03-08T05:12:52.702Z,72.70
2019-03-08T05:15:21.291Z,72.70
2019-03-08T05:17:49.651Z,72.90
2019-03-08T05:20:37.805Z,72.00
2019-03-08T05:23:06.495Z,71.60
2019-03-08T05:25:34.835Z,70.40
2019-03-08T05:28:04.841Z,70.60
2019-03-08T05:30:34.682Z,69.60
2019-03-08T05:33:03.412Z,69.50
2019-03-08T05:35:32.199Z,69.90
2019-03-08T05:38:00.891Z,69.20
2019-03-08T05:40:29.232Z,68.80
2019-03-08T05:42:57.591Z,68.90
2019-03-08T05:45:26.243Z,69.40
2019-03-08T05:47:54.611Z,69.00
2019-03-08T05:50:23.523Z,68.10
2019-03-08T05:52:52.208Z,68.60
2019-03-08T05:55:20.551Z,68.40
2019-03-08T05:57:48.914Z,68.60
2019-03-08T06:00:19.091Z,68.00
2019-03-08T06:02:47.457Z,68.10
2019-03-08T06:05:15.795Z,69.40
2019-03-08T06:07:44.158Z,67.50
2019-03-08T06:10:31.682Z,66.80
2019-03-08T06:13:01.081Z,67.00
2019-03-08T06:15:29.424Z,66.40
2019-03-08T06:17:58.001Z,66.20
2019-03-08T06:20:26.330Z,66.10
2019-03-08T06:22:54.695Z,66.10
2019-03-08T06:25:23.041Z,66.10
2019-03-08T06:27:51.688Z,66.40
2019-03-08T06:30:20.032Z,65.90
2019-03-08T06:32:48.761Z,66.10
2019-03-08T06:35:17.447Z,66.30
2019-03-08T06:37:46.136Z,66.00
2019-03-08T06:40:14.831Z,65.80
2019-03-08T06:42:43.200Z,66.60
2019-03-08T06:45:17.052Z,66.20
2019-03-08T06:47:45.711Z,65.50
2019-03-08T06:50:15.228Z,65.30
2019-03-08T06:52:43.582Z,66.00
2019-03-08T06:55:15.826Z,65.70
2019-03-08T06:57:44.192Z,65.70
2019-03-08T07:00:37.819Z,66.60
2019-03-08T07:03:07.747Z,65.90
2019-03-08T07:05:36.427Z,66.10
2019-03-08T07:08:05.430Z,66.00
2019-03-08T07:10:34.995Z,65.80
2019-03-08T07:13:03.897Z,66.00
2019-03-08T07:15:32.621Z,65.50
2019-03-08T07:18:00.979Z,65.40
2019-03-08T07:20:34.102Z,65.20
2019-03-08T07:23:11.166Z,65.50
2019-03-08T07:25:50.899Z,64.90
2019-03-08T07:28:25.647Z,65.00
2019-03-08T07:31:01.527Z,64.00
2019-03-08T07:33:31.827Z,64.40
2019-03-08T07:36:08.091Z,65.30
2019-03-08T07:38:43.523Z,66.00
2019-03-08T07:41:29.946Z,66.10
2019-03-08T07:44:06.299Z,65.90
2019-03-08T07:46:42.660Z,66.30
2019-03-08T07:49:22.429Z,66.10
2019-03-08T07:51:52.687Z,65.80
2019-03-08T07:54:28.786Z,65.90
2019-03-08T07:57:02.761Z,66.00
2019-03-08T07:59:41.750Z,65.90
2019-03-08T08:02:18.083Z,65.70
2019-03-08T08:04:48.069Z,65.80
2019-03-08T08:07:33.140Z,66.60
2019-03-08T08:10:19.079Z,66.50
2019-03-08T08:12:51.871Z,65.00
2019-03-08T08:15:37.411Z,65.00
2019-03-08T08:18:10.728Z,65.70
2019-03-08T08:20:52.913Z,65.20
2019-03-08T08:23:22.923Z,65.20
2019-03-08T08:25:55.902Z,65.70
2019-03-08T08:28:26.453Z,65.80
2019-03-08T08:30:59.094Z,65.40
2019-03-08T08:33:35.399Z,66.10
2019-03-08T08:36:05.382Z,65.80
2019-03-08T08:38:50.519Z,65.90
2019-03-08T08:41:32.783Z,66.40
2019-03-08T08:44:08.948Z,66.30
2019-03-08T08:46:44.995Z,65.60
2019-03-08T08:49:16.755Z,66.30
2019-03-08T08:51:52.446Z,66.80
2019-03-08T08:54:31.637Z,65.80
2019-03-08T08:57:18.240Z,66.20
2019-03-08T08:59:54.240Z,66.50
2019-03-08T09:02:36.134Z,66.40
2019-03-08T09:05:11.115Z,66.20
2019-03-08T09:07:43.915Z,66.30
2019-03-08T09:10:30.407Z,65.80
2019-03-08T09:13:12.907Z,65.20
2019-03-08T09:15:43.542Z,67.50
2019-03-08T09:18:22.982Z,65.80
2019-03-08T09:20:56.063Z,75.40
2019-03-08T09:23:26.072Z,69.50
2019-03-08T09:26:09.207Z,67.70
2019-03-08T09:28:41.959Z,69.60
2019-03-08T09:31:11.938Z,69.80
2019-03-08T09:33:44.862Z,70.50
2019-03-08T09:36:28.146Z,68.60
2019-03-08T09:38:58.127Z,69.60
2019-03-08T09:41:40.183Z,70.20
2019-03-08T09:44:10.459Z,69.70
2019-03-08T09:46:46.462Z,68.90
2019-03-08T09:49:25.474Z,66.00
2019-03-08T09:51:55.455Z,65.30
2019-03-08T09:54:39.202Z,65.40
2019-03-08T09:57:09.180Z,66.00
2019-03-08T09:59:39.550Z,65.70
2019-03-08T10:02:09.979Z,66.00
2019-03-08T10:04:41.115Z,64.00
2019-03-08T10:07:14.123Z,66.80
2019-03-08T10:09:44.391Z,65.50
2019-03-08T10:12:20.187Z,68.20
2019-03-08T10:14:53.155Z,69.30
2019-03-08T10:17:28.870Z,67.30
2019-03-08T10:20:15.367Z,69.80
2019-03-08T10:22:45.271Z,67.80
2019-03-08T10:25:18.235Z,71.50
2019-03-08T10:28:05.031Z,73.60
2019-03-08T10:30:40.971Z,70.30
2019-03-08T10:33:10.954Z,68.60
2019-03-08T10:35:40.958Z,69.70
2019-03-08T10:38:22.528Z,68.90
2019-03-08T10:40:57.393Z,69.70
2019-03-08T10:43:27.331Z,70.80
2019-03-08T10:46:00.237Z,70.50
2019-03-08T10:48:30.586Z,71.80
2019-03-08T10:51:04.899Z,71.20
2019-03-08T10:53:44.131Z,73.40
2019-03-08T10:56:17.115Z,74.60
2019-03-08T10:58:47.101Z,71.90
2019-03-08T11:01:18.391Z,72.60
2019-03-08T11:03:49.024Z,70.80
2019-03-08T11:06:34.704Z,66.60
2019-03-08T11:09:05.031Z,68.30
2019-03-08T11:11:47.126Z,68.70
2019-03-08T11:14:17.112Z,68.60
2019-03-08T11:16:47.479Z,70.00
2019-03-08T11:19:17.460Z,69.50
2019-03-08T11:22:05.852Z,68.00
2019-03-08T11:24:48.031Z,66.40
2019-03-08T11:27:23.807Z,67.00
2019-03-08T11:30:12.228Z,65.80
2019-03-08T11:32:42.548Z,70.00
2019-03-08T11:35:18.619Z,72.80
2019-03-08T11:37:48.940Z,75.70
2019-03-08T11:40:21.559Z,77.60
2019-03-08T11:42:57.475Z,80.40
2019-03-08T11:45:34.563Z,83.30
2019-03-08T11:48:07.551Z,85.00
2019-03-08T11:50:54.451Z,88.10
2019-03-08T11:53:27.644Z,90.20
2019-03-08T11:56:15.656Z,91.10
2019-03-08T11:58:46.005Z,89.50
2019-03-08T12:01:21.775Z,90.30
2019-03-08T12:03:58.994Z,87.80
2019-03-08T12:06:37.979Z,88.50
2019-03-08T12:09:10.009Z,90.20
2019-03-08T12:11:42.962Z,86.30
2019-03-08T12:14:12.969Z,83.50
2019-03-08T12:16:46.028Z,86.00
2019-03-08T12:19:30.991Z,86.90
2019-03-08T12:22:18.131Z,85.00
2019-03-08T12:24:51.299Z,83.50
2019-03-08T12:27:24.593Z,83.80
2019-03-08T12:30:09.594Z,86.20
2019-03-08T12:32:41.671Z,82.30
2019-03-08T12:35:17.886Z,78.20
2019-03-08T12:37:47.887Z,79.30
2019-03-08T12:40:20.663Z,80.40
2019-03-08T12:42:53.718Z,76.30
2019-03-08T12:45:29.939Z,78.70
2019-03-08T12:48:02.622Z,79.00
2019-03-08T12:50:32.614Z,78.90
2019-03-08T12:53:02.969Z,78.30
2019-03-08T12:55:51.611Z,76.60
2019-03-08T12:58:24.698Z,75.00
2019-03-08T13:01:11.402Z,74.50
2019-03-08T13:03:58.208Z,75.50
2019-03-08T13:06:34.162Z,75.50
2019-03-08T13:09:10.423Z,74.10
2019-03-08T13:11:39.124Z,74.20
2019-03-08T13:14:07.911Z,72.50
2019-03-08T13:16:37.719Z,73.00
2019-03-08T13:19:06.423Z,70.40
2019-03-08T13:21:34.762Z,71.10
2019-03-08T13:24:03.489Z,70.00
2019-03-08T13:26:31.831Z,68.90
2019-03-08T13:29:00.190Z,69.20
2019-03-08T13:31:28.532Z,69.30
2019-03-08T13:33:56.900Z,70.40
2019-03-08T13:36:25.510Z,68.30
2019-03-08T13:38:54.203Z,69.40
2019-03-08T13:41:22.743Z,70.30
2019-03-08T13:43:51.381Z,70.30
2019-03-08T13:46:19.723Z,70.50
2019-03-08T13:48:48.087Z,71.50
2019-03-08T13:51:16.459Z,69.10
2019-03-08T13:53:45.110Z,66.60
2019-03-08T13:56:13.647Z,66.00
2019-03-08T13:58:41.945Z,61.60
2019-03-08T14:01:10.299Z,62.80
2019-03-08T14:03:38.964Z,60.00
2019-03-08T14:06:07.582Z,59.00
2019-03-08T14:08:35.982Z,58.60
2019-03-08T14:11:04.530Z,58.40
2019-03-08T14:13:33.139Z,62.00
2019-03-08T14:16:01.487Z,64.00
2019-03-08T14:18:30.195Z,60.00
2019-03-08T14:20:58.554Z,58.00
2019-03-08T14:23:26.910Z,56.10
2019-03-08T14:25:55.739Z,56.90
2019-03-08T14:28:24.432Z,57.10
2019-03-08T14:31:08.995Z,62.00
2019-03-08T14:33:38.122Z,64.50
2019-03-08T14:36:07.392Z,65.40
2019-03-08T14:38:36.701Z,63.30
2019-03-08T14:41:13.160Z,64.30
2019-03-08T14:43:59.595Z,64.30
2019-03-08T14:46:45.026Z,66.70
2019-03-08T14:49:13.711Z,68.60
2019-03-08T14:51:44.715Z,70.30
2019-03-08T14:54:12.083Z,70.40
2019-03-08T14:56:40.631Z,68.50
2019-03-08T14:59:11.200Z,63.60
2019-03-08T15:01:40.309Z,64.60
2019-03-08T15:04:09.639Z,67.90
2019-03-08T15:06:37.999Z,68.60
2019-03-08T15:09:09.743Z,64.40
2019-03-08T15:11:38.039Z,58.80
2019-03-08T15:14:06.988Z,54.50
2019-03-08T15:16:39.087Z,52.40
2019-03-08T15:19:05.984Z,53.50
2019-03-08T15:21:37.009Z,55.50
2019-03-08T15:24:04.790Z,54.60
2019-03-08T15:26:33.087Z,57.40
2019-03-08T15:29:01.771Z,54.80
2019-03-08T15:31:30.131Z,52.30
2019-03-08T15:33:58.399Z,53.30
2019-03-08T15:36:26.866Z,54.10
2019-03-08T15:38:58.780Z,53.50
2019-03-08T15:41:26.514Z,52.70
2019-03-08T15:43:54.862Z,54.20
2019-03-08T15:46:23.527Z,55.50
2019-03-08T15:48:53.260Z,56.00
2019-03-08T15:51:25.197Z,55.90
2019-03-08T15:53:54.323Z,57.20
2019-03-08T15:56:22.470Z,60.30
2019-03-08T15:58:50.739Z,64.00
2019-03-08T16:01:19.351Z,65.60
2019-03-08T16:03:48.045Z,66.90
2019-03-08T16:06:16.407Z,67.60
2019-03-08T16:08:45.007Z,68.00
2019-03-08T16:11:13.596Z,67.90
2019-03-08T16:13:42.192Z,67.20
2019-03-08T16:16:11.079Z,67.70
2019-03-08T16:18:40.031Z,68.60
2019-03-08T16:21:13.189Z,69.30
2019-03-08T16:23:40.039Z,69.40
2019-03-08T16:26:08.337Z,70.20
2019-03-08T16:28:36.867Z,71.20
2019-03-08T16:31:07.219Z,72.30
2019-03-08T16:33:40.103Z,72.80
2019-03-08T16:36:13.375Z,73.90
2019-03-08T16:38:59.987Z,74.70
2019-03-08T16:41:30.327Z,75.30
2019-03-08T16:44:03.437Z,76.50
2019-03-08T16:46:36.446Z,77.10
2019-03-08T16:49:14.886Z,77.60
2019-03-08T16:51:49.830Z,78.90
2019-03-08T16:54:36.761Z,79.20
2019-03-08T16:57:06.696Z,79.80
2019-03-08T16:59:45.612Z,80.00
2019-03-08T17:02:32.305Z,80.30
2019-03-08T17:05:07.852Z,80.40
2019-03-08T17:07:50.099Z,80.50
2019-03-08T17:10:36.747Z,82.40
2019-03-08T17:13:06.978Z,84.80
2019-03-08T17:15:39.862Z,86.50
2019-03-08T17:18:09.872Z,88.00
2019-03-08T17:20:43.095Z,88.40
2019-03-08T17:23:14.208Z,89.70
2019-03-08T17:25:44.548Z,88.20
2019-03-08T17:28:14.776Z,88.40
2019-03-08T17:30:47.659Z,89.20
2019-03-08T17:33:18.999Z,90.00
2019-03-08T17:35:53.394Z,90.40
2019-03-08T17:38:22.826Z,90.20
2019-03-08T17:41:02.072Z,90.50
2019-03-08T17:43:49.942Z,90.70
2019-03-08T17:46:25.659Z,91.00
2019-03-08T17:49:01.982Z,91.20
2019-03-08T17:51:47.487Z,91.80
2019-03-08T17:54:17.815Z,92.40
2019-03-08T17:56:56.559Z,92.10
2019-03-08T17:59:26.856Z,92.00
2019-03-08T18:01:57.088Z,92.40
2019-03-08T18:04:29.927Z,92.40
2019-03-08T18:07:16.629Z,93.00
2019-03-08T18:09:53.683Z,92.70
2019-03-08T18:12:35.879Z,93.50
2019-03-08T18:15:17.535Z,93.30
2019-03-08T18:17:50.731Z,93.30
2019-03-08T18:20:35.767Z,94.00
2019-03-08T18:23:21.824Z,93.50
2019-03-08T18:25:51.830Z,93.70
2019-03-08T18:28:22.415Z,93.70
2019-03-08T18:30:55.935Z,93.40
2019-03-08T18:33:25.843Z,93.30
2019-03-08T18:35:57.207Z,93.20
2019-03-08T18:38:44.011Z,93.00
2019-03-08T18:41:23.354Z,92.70
2019-03-08T18:43:56.340Z,92.70
2019-03-08T18:46:32.598Z,92.70
2019-03-08T18:49:14.434Z,93.20
2019-03-08T18:51:53.824Z,93.00
2019-03-08T18:54:41.963Z,92.80
2019-03-08T18:57:18.215Z,93.10
2019-03-08T18:59:54.075Z,93.90
2019-03-08T19:02:39.087Z,94.10
2019-03-08T19:05:13.759Z,93.80
2019-03-08T19:07:43.672Z,95.40
2019-03-08T19:10:31.515Z,94.80
2019-03-08T19:13:16.782Z,94.70
2019-03-08T19:16:03.042Z,94.90
2019-03-08T19:18:33.394Z,94.50
2019-03-08T19:21:06.383Z,94.30
2019-03-08T19:23:51.856Z,94.80
2019-03-08T19:26:31.396Z,95.00
2019-03-08T19:29:17.572Z,94.70
2019-03-08T19:31:47.578Z,94.80
2019-03-08T19:34:20.820Z,95.30
2019-03-08T19:37:02.531Z,95.40
2019-03-08T19:39:38.843Z,95.50
2019-03-08T19:42:27.795Z,95.70
2019-03-08T19:45:00.559Z,96.10
2019-03-08T19:47:39.822Z,96.10
2019-03-08T19:50:20.318Z,96.70
2019-03-08T19:52:59.117Z,96.50
2019-03-08T19:55:29.031Z,96.20
2019-03-08T19:58:02.259Z,96.30
2019-03-08T20:00:34.948Z,96.20
2019-03-08T20:03:08.288Z,96.10
2019-03-08T20:05:38.616Z,95.90
2019-03-08T20:08:20.859Z,94.60
2019-03-08T20:11:07.615Z,94.70
2019-03-08T20:13:38.928Z,94.70
2019-03-08T20:16:24.239Z,95.60
2019-03-08T20:19:00.091Z,95.00
2019-03-08T20:21:30.075Z,94.30
2019-03-08T20:24:16.350Z,94.80
2019-03-08T20:26:46.259Z,95.20
2019-03-08T20:29:28.175Z,93.40
2019-03-08T20:32:01.282Z,94.60
2019-03-08T20:34:49.949Z,94.90
2019-03-08T20:37:20.271Z,94.40
2019-03-08T20:39:50.189Z,95.10
2019-03-08T20:42:36.488Z,93.20
2019-03-08T20:45:11.619Z,92.30
2019-03-08T20:47:39.932Z,92.20
2019-03-08T20:50:11.006Z,92.90
2019-03-08T20:52:39.638Z,92.30
2019-03-08T20:55:10.493Z,91.60
2019-03-08T20:57:38.827Z,90.80
2019-03-08T21:00:10.423Z,90.70
2019-03-08T21:02:38.771Z,89.90
2019-03-08T21:05:08.106Z,88.70
2019-03-08T21:07:36.372Z,88.60
2019-03-08T21:10:08.048Z,88.50
2019-03-08T21:12:36.406Z,87.40
2019-03-08T21:15:08.697Z,87.80
2019-03-08T21:17:37.391Z,87.40
2019-03-08T21:20:09.234Z,86.80
2019-03-08T21:22:37.844Z,87.00
2019-03-08T21:25:11.231Z,86.30
2019-03-08T21:27:39.490Z,84.90
2019-03-08T21:30:16.194Z,83.50
2019-03-08T21:32:44.467Z,83.40
2019-03-08T21:35:12.760Z,82.80
2019-03-08T21:37:41.543Z,83.90
2019-03-08T21:40:15.568Z,84.20
2019-03-08T21:42:43.915Z,84.90
2019-03-08T21:45:15.625Z,83.00
2019-03-08T21:47:44.294Z,83.30
2019-03-08T21:50:17.632Z,82.80
2019-03-08T21:52:45.895Z,83.50
2019-03-08T21:55:14.459Z,83.50
2019-03-08T21:57:42.809Z,83.00
2019-03-08T22:00:19.003Z,83.40
2019-03-08T22:02:47.595Z,83.80
2019-03-08T22:05:17.524Z,84.30
2019-03-08T22:07:46.091Z,84.80
2019-03-08T22:10:26.543Z,84.10
2019-03-08T22:12:55.103Z,86.20
2019-03-08T22:15:23.731Z,85.60
2019-03-08T22:17:52.423Z,84.80
2019-03-08T22:20:21.140Z,84.10
2019-03-08T22:22:49.478Z,84.40
2019-03-08T22:25:17.850Z,85.50
2019-03-08T22:27:46.194Z,87.20
2019-03-08T22:30:16.809Z,87.50
2019-03-08T22:32:45.588Z,87.80
2019-03-08T22:35:13.954Z,89.20
2019-03-08T22:37:42.559Z,89.80
2019-03-08T22:40:11.291Z,89.70
2019-03-08T22:42:40.080Z,90.20
2019-03-08T22:45:10.167Z,90.00
2019-03-08T22:47:38.433Z,89.20
2019-03-08T22:50:15.118Z,88.70
2019-03-08T22:52:43.394Z,88.50
2019-03-08T22:55:16.015Z,89.00
2019-03-08T22:57:44.671Z,88.30
2019-03-08T23:00:50.919Z,87.80
2019-03-08T23:03:19.608Z,87.20
2019-03-08T23:05:47.899Z,88.40
2019-03-08T23:08:16.239Z,86.90
2019-03-08T23:10:46.191Z,88.10
2019-03-08T23:13:14.779Z,87.90
2019-03-08T23:15:43.375Z,86.60
2019-03-08T23:18:11.707Z,87.00
2019-03-08T23:20:39.994Z,85.70
2019-03-08T23:23:08.263Z,86.10
2019-03-08T23:25:36.903Z,87.40
2019-03-08T23:28:23.807Z,85.30
2019-03-08T23:31:04.567Z,85.10
2019-03-08T23:33:32.831Z,85.00
2019-03-08T23:36:01.131Z,84.80
2019-03-08T23:38:29.828Z,84.80
2019-03-08T23:40:59.723Z,84.40
2019-03-08T23:43:28.331Z,85.20
2019-03-08T23:45:56.695Z,84.30
2019-03-08T23:48:25.039Z,84.80
2019-03-08T23:50:53.416Z,86.10
2019-03-08T23:53:22.074Z,86.80
2019-03-08T23:55:50.707Z,87.70
2019-03-08T23:58:19.555Z,88.00
